sensor_id;sensor_type;location;lat;lon;timestamp;P1;durP1;ratioP1;P2;durP2;ratioP2
8514;SDS011;4295;51.024;7.000;2022-08-19T00:01:22;83.70;;;15.73;;
8514;SDS011;4295;51.024;7.000;2022-08-19T00:03:48;83.83;;;15.60;;
8514;SDS011;4295;51.024;7.000;2022-08-19T00:06:14;82.67;;;14.93;;
8514;SDS011;4295;51.024;7.000;2022-08-19T00:08:39;83.60;;;16.17;;
8514;SDS011;4295;51.024;7.000;2022-08-19T00:11:05;84.37;;;15.87;;
8514;SDS011;4295;51.024;7.000;2022-08-19T00:13:30;85.40;;;15.97;;
8514;SDS011;4295;51.024;7.000;2022-08-19T00:15:55;87.53;;;15.20;;
8514;SDS011;4295;51.024;7.000;2022-08-19T00:18:21;84.33;;;15.57;;
8514;SDS011;4295;51.024;7.000;2022-08-19T00:20:46;83.07;;;15.00;;
8514;SDS011;4295;51.024;7.000;2022-08-19T00:23:11;84.67;;;15.27;;
8514;SDS011;4295;51.024;7.000;2022-08-19T00:25:37;84.13;;;15.10;;
8514;SDS011;4295;51.024;7.000;2022-08-19T00:28:02;83.50;;;16.07;;
8514;SDS011;4295;51.024;7.000;2022-08-19T00:30:28;83.40;;;14.90;;
8514;SDS011;4295;51.024;7.000;2022-08-19T00:32:53;86.63;;;15.50;;
8514;SDS011;4295;51.024;7.000;2022-08-19T00:35:20;83.37;;;14.90;;
8514;SDS011;4295;51.024;7.000;2022-08-19T00:37:47;83.17;;;15.07;;
8514;SDS011;4295;51.024;7.000;2022-08-19T00:40:12;84.27;;;14.63;;
8514;SDS011;4295;51.024;7.000;2022-08-19T00:42:37;84.10;;;15.20;;
8514;SDS011;4295;51.024;7.000;2022-08-19T00:45:05;83.93;;;14.57;;
8514;SDS011;4295;51.024;7.000;2022-08-19T00:47:33;82.67;;;15.27;;
8514;SDS011;4295;51.024;7.000;2022-08-19T00:49:58;82.67;;;15.13;;
8514;SDS011;4295;51.024;7.000;2022-08-19T00:52:28;83.47;;;14.60;;
8514;SDS011;4295;51.024;7.000;2022-08-19T00:54:54;84.90;;;15.97;;
8514;SDS011;4295;51.024;7.000;2022-08-19T00:57:22;84.20;;;15.57;;
8514;SDS011;4295;51.024;7.000;2022-08-19T00:59:47;84.57;;;15.83;;
8514;SDS011;4295;51.024;7.000;2022-08-19T01:02:15;85.77;;;16.43;;
8514;SDS011;4295;51.024;7.000;2022-08-19T01:04:41;87.30;;;15.90;;
8514;SDS011;4295;51.024;7.000;2022-08-19T01:07:06;86.83;;;15.90;;
8514;SDS011;4295;51.024;7.000;2022-08-19T01:09:32;85.37;;;15.93;;
8514;SDS011;4295;51.024;7.000;2022-08-19T01:11:57;86.70;;;16.70;;
8514;SDS011;4295;51.024;7.000;2022-08-19T01:14:22;86.80;;;16.47;;
8514;SDS011;4295;51.024;7.000;2022-08-19T01:16:48;83.30;;;15.80;;
8514;SDS011;4295;51.024;7.000;2022-08-19T01:19:30;84.07;;;15.80;;
8514;SDS011;4295;51.024;7.000;2022-08-19T01:22:08;85.97;;;17.27;;
8514;SDS011;4295;51.024;7.000;2022-08-19T01:24:35;84.70;;;16.20;;
8514;SDS011;4295;51.024;7.000;2022-08-19T01:27:03;83.60;;;16.10;;
8514;SDS011;4295;51.024;7.000;2022-08-19T01:29:28;85.57;;;16.60;;
8514;SDS011;4295;51.024;7.000;2022-08-19T01:31:54;84.07;;;16.20;;
8514;SDS011;4295;51.024;7.000;2022-08-19T01:34:19;86.20;;;16.60;;
8514;SDS011;4295;51.024;7.000;2022-08-19T01:36:45;85.47;;;16.50;;
8514;SDS011;4295;51.024;7.000;2022-08-19T01:39:13;86.90;;;17.03;;
8514;SDS011;4295;51.024;7.000;2022-08-19T01:41:39;85.40;;;15.90;;
8514;SDS011;4295;51.024;7.000;2022-08-19T01:44:05;86.90;;;17.00;;
8514;SDS011;4295;51.024;7.000;2022-08-19T01:46:31;86.67;;;16.70;;
8514;SDS011;4295;51.024;7.000;2022-08-19T01:48:57;87.33;;;16.50;;
8514;SDS011;4295;51.024;7.000;2022-08-19T01:51:22;85.10;;;16.87;;
8514;SDS011;4295;51.024;7.000;2022-08-19T01:53:48;85.00;;;16.40;;
8514;SDS011;4295;51.024;7.000;2022-08-19T01:56:14;85.97;;;16.33;;
8514;SDS011;4295;51.024;7.000;2022-08-19T01:58:41;85.40;;;16.77;;
8514;SDS011;4295;51.024;7.000;2022-08-19T02:01:07;87.50;;;17.30;;
8514;SDS011;4295;51.024;7.000;2022-08-19T02:03:32;85.53;;;17.17;;
8514;SDS011;4295;51.024;7.000;2022-08-19T02:05:59;86.00;;;16.57;;
8514;SDS011;4295;51.024;7.000;2022-08-19T02:08:29;86.67;;;16.13;;
8514;SDS011;4295;51.024;7.000;2022-08-19T02:10:54;85.87;;;16.43;;
8514;SDS011;4295;51.024;7.000;2022-08-19T02:13:19;85.97;;;17.13;;
8514;SDS011;4295;51.024;7.000;2022-08-19T02:15:44;88.83;;;17.70;;
8514;SDS011;4295;51.024;7.000;2022-08-19T02:18:10;87.40;;;17.40;;
8514;SDS011;4295;51.024;7.000;2022-08-19T02:20:36;84.30;;;16.80;;
8514;SDS011;4295;51.024;7.000;2022-08-19T02:23:02;86.67;;;17.23;;
8514;SDS011;4295;51.024;7.000;2022-08-19T02:25:27;86.30;;;16.60;;
8514;SDS011;4295;51.024;7.000;2022-08-19T02:27:52;85.53;;;16.50;;
8514;SDS011;4295;51.024;7.000;2022-08-19T02:30:19;85.57;;;16.73;;
8514;SDS011;4295;51.024;7.000;2022-08-19T02:32:44;87.80;;;17.40;;
8514;SDS011;4295;51.024;7.000;2022-08-19T02:35:10;86.97;;;18.50;;
8514;SDS011;4295;51.024;7.000;2022-08-19T02:37:35;86.40;;;17.87;;
8514;SDS011;4295;51.024;7.000;2022-08-19T02:40:19;85.70;;;17.83;;
8514;SDS011;4295;51.024;7.000;2022-08-19T02:42:44;88.33;;;18.53;;
8514;SDS011;4295;51.024;7.000;2022-08-19T02:45:11;85.93;;;17.50;;
8514;SDS011;4295;51.024;7.000;2022-08-19T02:47:36;87.10;;;18.60;;
8514;SDS011;4295;51.024;7.000;2022-08-19T02:50:01;89.23;;;18.07;;
8514;SDS011;4295;51.024;7.000;2022-08-19T02:52:27;84.70;;;16.50;;
8514;SDS011;4295;51.024;7.000;2022-08-19T02:54:53;87.00;;;17.50;;
8514;SDS011;4295;51.024;7.000;2022-08-19T02:57:18;87.27;;;17.77;;
8514;SDS011;4295;51.024;7.000;2022-08-19T02:59:43;88.70;;;19.07;;
8514;SDS011;4295;51.024;7.000;2022-08-19T03:02:08;86.80;;;18.33;;
8514;SDS011;4295;51.024;7.000;2022-08-19T03:04:34;87.17;;;18.40;;
8514;SDS011;4295;51.024;7.000;2022-08-19T03:06:59;86.97;;;18.50;;
8514;SDS011;4295;51.024;7.000;2022-08-19T03:09:24;86.77;;;18.40;;
8514;SDS011;4295;51.024;7.000;2022-08-19T03:11:49;88.27;;;18.57;;
8514;SDS011;4295;51.024;7.000;2022-08-19T03:14:15;86.73;;;18.00;;
8514;SDS011;4295;51.024;7.000;2022-08-19T03:16:42;84.57;;;17.63;;
8514;SDS011;4295;51.024;7.000;2022-08-19T03:19:07;85.57;;;17.30;;
8514;SDS011;4295;51.024;7.000;2022-08-19T03:21:33;87.50;;;18.57;;
8514;SDS011;4295;51.024;7.000;2022-08-19T03:24:00;87.93;;;17.30;;
8514;SDS011;4295;51.024;7.000;2022-08-19T03:26:26;84.90;;;17.37;;
8514;SDS011;4295;51.024;7.000;2022-08-19T03:28:51;86.60;;;18.60;;
8514;SDS011;4295;51.024;7.000;2022-08-19T03:31:20;86.40;;;18.07;;
8514;SDS011;4295;51.024;7.000;2022-08-19T03:33:49;86.23;;;17.50;;
8514;SDS011;4295;51.024;7.000;2022-08-19T03:36:19;89.67;;;17.40;;
8514;SDS011;4295;51.024;7.000;2022-08-19T03:38:47;85.90;;;17.80;;
8514;SDS011;4295;51.024;7.000;2022-08-19T03:41:14;86.77;;;17.80;;
8514;SDS011;4295;51.024;7.000;2022-08-19T03:43:40;86.73;;;16.60;;
8514;SDS011;4295;51.024;7.000;2022-08-19T03:46:10;86.40;;;18.27;;
8514;SDS011;4295;51.024;7.000;2022-08-19T03:48:36;89.87;;;19.50;;
8514;SDS011;4295;51.024;7.000;2022-08-19T03:51:02;86.97;;;17.77;;
8514;SDS011;4295;51.024;7.000;2022-08-19T03:53:28;87.30;;;17.67;;
8514;SDS011;4295;51.024;7.000;2022-08-19T03:55:53;90.33;;;18.73;;
8514;SDS011;4295;51.024;7.000;2022-08-19T03:58:19;86.50;;;18.20;;
8514;SDS011;4295;51.024;7.000;2022-08-19T04:00:44;87.60;;;17.37;;
8514;SDS011;4295;51.024;7.000;2022-08-19T04:03:10;88.60;;;18.83;;
8514;SDS011;4295;51.024;7.000;2022-08-19T04:05:35;86.97;;;18.33;;
8514;SDS011;4295;51.024;7.000;2022-08-19T04:08:00;89.70;;;17.30;;
8514;SDS011;4295;51.024;7.000;2022-08-19T04:10:26;85.37;;;17.53;;
8514;SDS011;4295;51.024;7.000;2022-08-19T04:12:51;86.97;;;18.00;;
8514;SDS011;4295;51.024;7.000;2022-08-19T04:15:16;89.00;;;19.20;;
8514;SDS011;4295;51.024;7.000;2022-08-19T04:17:42;88.03;;;18.57;;
8514;SDS011;4295;51.024;7.000;2022-08-19T04:20:07;88.10;;;17.10;;
8514;SDS011;4295;51.024;7.000;2022-08-19T04:22:32;89.80;;;17.40;;
8514;SDS011;4295;51.024;7.000;2022-08-19T04:24:57;87.73;;;17.43;;
8514;SDS011;4295;51.024;7.000;2022-08-19T04:27:23;85.53;;;16.77;;
8514;SDS011;4295;51.024;7.000;2022-08-19T04:29:48;88.07;;;19.17;;
8514;SDS011;4295;51.024;7.000;2022-08-19T04:32:13;87.37;;;18.70;;
8514;SDS011;4295;51.024;7.000;2022-08-19T04:34:40;95.40;;;18.63;;
8514;SDS011;4295;51.024;7.000;2022-08-19T04:37:05;88.30;;;18.73;;
8514;SDS011;4295;51.024;7.000;2022-08-19T04:39:36;89.90;;;19.33;;
8514;SDS011;4295;51.024;7.000;2022-08-19T04:42:20;88.27;;;18.40;;
8514;SDS011;4295;51.024;7.000;2022-08-19T04:45:04;89.37;;;19.50;;
8514;SDS011;4295;51.024;7.000;2022-08-19T04:47:30;95.50;;;20.10;;
8514;SDS011;4295;51.024;7.000;2022-08-19T04:49:57;88.90;;;19.30;;
8514;SDS011;4295;51.024;7.000;2022-08-19T04:52:22;88.17;;;18.87;;
8514;SDS011;4295;51.024;7.000;2022-08-19T04:54:47;88.33;;;18.90;;
8514;SDS011;4295;51.024;7.000;2022-08-19T04:57:13;95.53;;;20.70;;
8514;SDS011;4295;51.024;7.000;2022-08-19T04:59:38;91.90;;;21.65;;
8514;SDS011;4295;51.024;7.000;2022-08-19T05:02:04;90.20;;;19.67;;
8514;SDS011;4295;51.024;7.000;2022-08-19T05:04:31;90.03;;;19.30;;
8514;SDS011;4295;51.024;7.000;2022-08-19T05:06:57;92.63;;;20.53;;
8514;SDS011;4295;51.024;7.000;2022-08-19T05:09:23;91.23;;;20.10;;
8514;SDS011;4295;51.024;7.000;2022-08-19T05:11:48;91.30;;;20.13;;
8514;SDS011;4295;51.024;7.000;2022-08-19T05:14:15;89.20;;;19.90;;
8514;SDS011;4295;51.024;7.000;2022-08-19T05:16:41;87.20;;;19.70;;
8514;SDS011;4295;51.024;7.000;2022-08-19T05:19:06;90.07;;;19.57;;
8514;SDS011;4295;51.024;7.000;2022-08-19T05:21:50;87.87;;;19.10;;
8514;SDS011;4295;51.024;7.000;2022-08-19T05:24:34;95.43;;;19.50;;
8514;SDS011;4295;51.024;7.000;2022-08-19T05:27:00;93.30;;;19.43;;
8514;SDS011;4295;51.024;7.000;2022-08-19T05:29:27;89.70;;;19.57;;
8514;SDS011;4295;51.024;7.000;2022-08-19T05:31:53;92.80;;;18.80;;
8514;SDS011;4295;51.024;7.000;2022-08-19T05:34:19;90.50;;;19.97;;
8514;SDS011;4295;51.024;7.000;2022-08-19T05:36:47;89.90;;;21.03;;
8514;SDS011;4295;51.024;7.000;2022-08-19T05:39:13;91.83;;;21.10;;
8514;SDS011;4295;51.024;7.000;2022-08-19T05:41:41;95.27;;;21.50;;
8514;SDS011;4295;51.024;7.000;2022-08-19T05:44:06;95.90;;;24.10;;
8514;SDS011;4295;51.024;7.000;2022-08-19T05:46:34;99.33;;;26.03;;
8514;SDS011;4295;51.024;7.000;2022-08-19T05:48:59;97.33;;;24.93;;
8514;SDS011;4295;51.024;7.000;2022-08-19T05:51:24;103.23;;;28.90;;
8514;SDS011;4295;51.024;7.000;2022-08-19T05:53:50;109.20;;;34.60;;
8514;SDS011;4295;51.024;7.000;2022-08-19T05:56:16;114.97;;;38.80;;
8514;SDS011;4295;51.024;7.000;2022-08-19T05:58:42;121.53;;;40.17;;
8514;SDS011;4295;51.024;7.000;2022-08-19T06:01:11;128.47;;;42.33;;
8514;SDS011;4295;51.024;7.000;2022-08-19T06:03:37;124.30;;;41.70;;
8514;SDS011;4295;51.024;7.000;2022-08-19T06:06:04;119.87;;;41.83;;
8514;SDS011;4295;51.024;7.000;2022-08-19T06:08:31;122.10;;;41.53;;
8514;SDS011;4295;51.024;7.000;2022-08-19T06:10:56;122.70;;;43.30;;
8514;SDS011;4295;51.024;7.000;2022-08-19T06:13:22;128.67;;;40.07;;
8514;SDS011;4295;51.024;7.000;2022-08-19T06:15:47;115.60;;;40.80;;
8514;SDS011;4295;51.024;7.000;2022-08-19T06:18:13;118.40;;;39.93;;
8514;SDS011;4295;51.024;7.000;2022-08-19T06:20:39;125.03;;;42.27;;
8514;SDS011;4295;51.024;7.000;2022-08-19T06:23:04;120.10;;;40.40;;
8514;SDS011;4295;51.024;7.000;2022-08-19T06:25:29;118.37;;;38.97;;
8514;SDS011;4295;51.024;7.000;2022-08-19T06:27:55;117.27;;;39.47;;
8514;SDS011;4295;51.024;7.000;2022-08-19T06:30:20;123.63;;;38.67;;
8514;SDS011;4295;51.024;7.000;2022-08-19T06:32:45;117.93;;;39.23;;
8514;SDS011;4295;51.024;7.000;2022-08-19T06:35:11;115.43;;;38.00;;
8514;SDS011;4295;51.024;7.000;2022-08-19T06:37:37;114.60;;;36.40;;
8514;SDS011;4295;51.024;7.000;2022-08-19T06:40:02;114.10;;;34.43;;
8514;SDS011;4295;51.024;7.000;2022-08-19T06:42:28;104.90;;;31.97;;
8514;SDS011;4295;51.024;7.000;2022-08-19T06:44:54;109.60;;;33.80;;
8514;SDS011;4295;51.024;7.000;2022-08-19T06:47:20;107.97;;;31.33;;
8514;SDS011;4295;51.024;7.000;2022-08-19T06:49:46;105.17;;;31.53;;
8514;SDS011;4295;51.024;7.000;2022-08-19T06:52:12;107.60;;;33.17;;
8514;SDS011;4295;51.024;7.000;2022-08-19T06:54:37;106.50;;;32.80;;
8514;SDS011;4295;51.024;7.000;2022-08-19T06:57:03;109.97;;;32.53;;
8514;SDS011;4295;51.024;7.000;2022-08-19T06:59:29;108.47;;;32.90;;
8514;SDS011;4295;51.024;7.000;2022-08-19T07:01:57;101.87;;;31.23;;
8514;SDS011;4295;51.024;7.000;2022-08-19T07:04:25;100.67;;;29.50;;
8514;SDS011;4295;51.024;7.000;2022-08-19T07:06:55;106.77;;;31.80;;
8514;SDS011;4295;51.024;7.000;2022-08-19T07:09:21;101.37;;;31.40;;
8514;SDS011;4295;51.024;7.000;2022-08-19T07:11:46;105.37;;;31.90;;
8514;SDS011;4295;51.024;7.000;2022-08-19T07:14:12;110.03;;;32.03;;
8514;SDS011;4295;51.024;7.000;2022-08-19T07:16:39;107.10;;;32.17;;
8514;SDS011;4295;51.024;7.000;2022-08-19T07:19:04;113.87;;;32.70;;
8514;SDS011;4295;51.024;7.000;2022-08-19T07:21:29;99.83;;;30.20;;
8514;SDS011;4295;51.024;7.000;2022-08-19T07:23:55;107.43;;;29.77;;
8514;SDS011;4295;51.024;7.000;2022-08-19T07:26:22;106.10;;;30.73;;
8514;SDS011;4295;51.024;7.000;2022-08-19T07:28:48;104.20;;;29.43;;
8514;SDS011;4295;51.024;7.000;2022-08-19T07:31:15;102.50;;;28.33;;
8514;SDS011;4295;51.024;7.000;2022-08-19T07:33:43;101.73;;;29.07;;
8514;SDS011;4295;51.024;7.000;2022-08-19T07:36:09;99.27;;;28.40;;
8514;SDS011;4295;51.024;7.000;2022-08-19T07:38:36;104.23;;;29.60;;
8514;SDS011;4295;51.024;7.000;2022-08-19T07:41:03;101.23;;;28.03;;
8514;SDS011;4295;51.024;7.000;2022-08-19T07:43:28;108.53;;;30.70;;
8514;SDS011;4295;51.024;7.000;2022-08-19T07:45:54;102.53;;;29.57;;
8514;SDS011;4295;51.024;7.000;2022-08-19T07:48:25;96.70;;;27.37;;
8514;SDS011;4295;51.024;7.000;2022-08-19T07:50:54;108.00;;;29.70;;
8514;SDS011;4295;51.024;7.000;2022-08-19T07:53:20;100.70;;;28.70;;
8514;SDS011;4295;51.024;7.000;2022-08-19T07:55:45;104.10;;;29.90;;
8514;SDS011;4295;51.024;7.000;2022-08-19T07:58:12;107.77;;;30.07;;
8514;SDS011;4295;51.024;7.000;2022-08-19T08:00:38;105.57;;;29.27;;
8514;SDS011;4295;51.024;7.000;2022-08-19T08:03:03;111.43;;;30.07;;
8514;SDS011;4295;51.024;7.000;2022-08-19T08:05:28;103.33;;;30.27;;
8514;SDS011;4295;51.024;7.000;2022-08-19T08:08:12;106.23;;;30.70;;
8514;SDS011;4295;51.024;7.000;2022-08-19T08:10:56;100.90;;;29.10;;
8514;SDS011;4295;51.024;7.000;2022-08-19T08:13:22;104.50;;;30.57;;
8514;SDS011;4295;51.024;7.000;2022-08-19T08:15:47;110.00;;;31.67;;
8514;SDS011;4295;51.024;7.000;2022-08-19T08:18:12;105.97;;;29.97;;
8514;SDS011;4295;51.024;7.000;2022-08-19T08:20:38;104.50;;;28.93;;
8514;SDS011;4295;51.024;7.000;2022-08-19T08:23:03;108.80;;;31.17;;
8514;SDS011;4295;51.024;7.000;2022-08-19T08:25:47;104.73;;;30.93;;
8514;SDS011;4295;51.024;7.000;2022-08-19T08:28:13;105.80;;;31.90;;
8514;SDS011;4295;51.024;7.000;2022-08-19T08:30:39;108.53;;;31.80;;
8514;SDS011;4295;51.024;7.000;2022-08-19T08:33:06;112.07;;;33.50;;
8514;SDS011;4295;51.024;7.000;2022-08-19T08:35:31;106.83;;;32.87;;
8514;SDS011;4295;51.024;7.000;2022-08-19T08:37:58;113.20;;;33.43;;
8514;SDS011;4295;51.024;7.000;2022-08-19T08:43:01;110.63;;;33.30;;
8514;SDS011;4295;51.024;7.000;2022-08-19T08:45:30;118.13;;;35.20;;
8514;SDS011;4295;51.024;7.000;2022-08-19T08:47:56;112.77;;;34.57;;
8514;SDS011;4295;51.024;7.000;2022-08-19T08:50:27;111.27;;;35.50;;
8514;SDS011;4295;51.024;7.000;2022-08-19T08:52:54;116.83;;;35.00;;
8514;SDS011;4295;51.024;7.000;2022-08-19T08:55:23;114.17;;;33.87;;
8514;SDS011;4295;51.024;7.000;2022-08-19T08:57:52;114.00;;;33.00;;
8514;SDS011;4295;51.024;7.000;2022-08-19T09:02:47;108.33;;;32.20;;
8514;SDS011;4295;51.024;7.000;2022-08-19T09:05:13;108.37;;;32.90;;
8514;SDS011;4295;51.024;7.000;2022-08-19T09:12:51;103.43;;;32.47;;
8514;SDS011;4295;51.024;7.000;2022-08-19T09:15:20;110.10;;;32.43;;
8514;SDS011;4295;51.024;7.000;2022-08-19T09:17:46;108.33;;;33.67;;
8514;SDS011;4295;51.024;7.000;2022-08-19T09:20:20;108.57;;;30.17;;
8514;SDS011;4295;51.024;7.000;2022-08-19T09:22:46;105.07;;;31.40;;
8514;SDS011;4295;51.024;7.000;2022-08-19T09:25:18;111.70;;;30.47;;
8514;SDS011;4295;51.024;7.000;2022-08-19T09:27:46;103.80;;;32.37;;
8514;SDS011;4295;51.024;7.000;2022-08-19T09:30:16;102.00;;;30.83;;
8514;SDS011;4295;51.024;7.000;2022-08-19T09:32:42;112.17;;;31.30;;
8514;SDS011;4295;51.024;7.000;2022-08-19T09:35:08;107.57;;;30.47;;
8514;SDS011;4295;51.024;7.000;2022-08-19T09:37:34;101.77;;;29.97;;
8514;SDS011;4295;51.024;7.000;2022-08-19T09:39:59;103.80;;;28.13;;
8514;SDS011;4295;51.024;7.000;2022-08-19T09:42:24;95.60;;;26.60;;
8514;SDS011;4295;51.024;7.000;2022-08-19T09:44:49;99.83;;;25.83;;
8514;SDS011;4295;51.024;7.000;2022-08-19T09:47:15;97.97;;;26.43;;
8514;SDS011;4295;51.024;7.000;2022-08-19T09:49:40;94.97;;;25.23;;
8514;SDS011;4295;51.024;7.000;2022-08-19T09:52:07;98.90;;;25.93;;
8514;SDS011;4295;51.024;7.000;2022-08-19T09:54:33;96.33;;;24.47;;
8514;SDS011;4295;51.024;7.000;2022-08-19T09:56:58;95.43;;;25.37;;
8514;SDS011;4295;51.024;7.000;2022-08-19T09:59:25;96.67;;;24.43;;
8514;SDS011;4295;51.024;7.000;2022-08-19T10:01:50;97.53;;;23.47;;
8514;SDS011;4295;51.024;7.000;2022-08-19T10:04:16;90.90;;;19.97;;
8514;SDS011;4295;51.024;7.000;2022-08-19T10:06:41;87.87;;;20.83;;
8514;SDS011;4295;51.024;7.000;2022-08-19T10:09:07;90.90;;;20.03;;
8514;SDS011;4295;51.024;7.000;2022-08-19T10:11:33;90.30;;;22.17;;
8514;SDS011;4295;51.024;7.000;2022-08-19T10:13:59;94.17;;;19.90;;
8514;SDS011;4295;51.024;7.000;2022-08-19T10:16:25;90.40;;;19.50;;
8514;SDS011;4295;51.024;7.000;2022-08-19T10:18:51;90.80;;;20.93;;
8514;SDS011;4295;51.024;7.000;2022-08-19T10:21:24;88.30;;;18.87;;
8514;SDS011;4295;51.024;7.000;2022-08-19T10:23:50;93.93;;;22.00;;
8514;SDS011;4295;51.024;7.000;2022-08-19T10:26:17;86.80;;;18.80;;
8514;SDS011;4295;51.024;7.000;2022-08-19T10:28:42;82.10;;;16.10;;
8514;SDS011;4295;51.024;7.000;2022-08-19T10:31:09;88.57;;;16.83;;
8514;SDS011;4295;51.024;7.000;2022-08-19T10:33:35;86.80;;;17.97;;
8514;SDS011;4295;51.024;7.000;2022-08-19T10:36:01;85.70;;;18.70;;
8514;SDS011;4295;51.024;7.000;2022-08-19T10:38:27;89.80;;;21.37;;
8514;SDS011;4295;51.024;7.000;2022-08-19T10:40:53;87.03;;;19.80;;
8514;SDS011;4295;51.024;7.000;2022-08-19T10:43:18;84.27;;;19.93;;
8514;SDS011;4295;51.024;7.000;2022-08-19T10:45:48;84.67;;;17.00;;
8514;SDS011;4295;51.024;7.000;2022-08-19T10:48:16;86.47;;;17.67;;
8514;SDS011;4295;51.024;7.000;2022-08-19T10:50:41;86.77;;;19.90;;
8514;SDS011;4295;51.024;7.000;2022-08-19T10:53:39;84.50;;;16.33;;
8514;SDS011;4295;51.024;7.000;2022-08-19T10:56:04;80.60;;;15.23;;
8514;SDS011;4295;51.024;7.000;2022-08-19T10:58:48;88.90;;;15.67;;
8514;SDS011;4295;51.024;7.000;2022-08-19T11:01:13;83.33;;;16.50;;
8514;SDS011;4295;51.024;7.000;2022-08-19T11:03:39;81.87;;;14.57;;
8514;SDS011;4295;51.024;7.000;2022-08-19T11:06:05;80.67;;;14.47;;
8514;SDS011;4295;51.024;7.000;2022-08-19T11:08:31;88.10;;;14.00;;
8514;SDS011;4295;51.024;7.000;2022-08-19T11:10:58;78.10;;;13.30;;
8514;SDS011;4295;51.024;7.000;2022-08-19T11:13:26;78.83;;;14.00;;
8514;SDS011;4295;51.024;7.000;2022-08-19T11:16:02;82.50;;;14.83;;
8514;SDS011;4295;51.024;7.000;2022-08-19T11:18:28;83.73;;;15.07;;
8514;SDS011;4295;51.024;7.000;2022-08-19T11:20:53;78.40;;;13.53;;
8514;SDS011;4295;51.024;7.000;2022-08-19T11:23:18;80.10;;;14.10;;
8514;SDS011;4295;51.024;7.000;2022-08-19T11:25:44;77.70;;;13.93;;
8514;SDS011;4295;51.024;7.000;2022-08-19T11:28:10;88.03;;;14.17;;
8514;SDS011;4295;51.024;7.000;2022-08-19T11:30:36;80.30;;;15.30;;
8514;SDS011;4295;51.024;7.000;2022-08-19T11:33:02;79.30;;;13.70;;
8514;SDS011;4295;51.024;7.000;2022-08-19T11:35:27;83.43;;;12.53;;
8514;SDS011;4295;51.024;7.000;2022-08-19T11:37:52;77.50;;;14.17;;
8514;SDS011;4295;51.024;7.000;2022-08-19T11:40:18;77.40;;;12.90;;
8514;SDS011;4295;51.024;7.000;2022-08-19T11:42:43;79.30;;;14.40;;
8514;SDS011;4295;51.024;7.000;2022-08-19T11:45:22;78.70;;;13.53;;
8514;SDS011;4295;51.024;7.000;2022-08-19T11:47:48;80.00;;;14.67;;
8514;SDS011;4295;51.024;7.000;2022-08-19T11:50:13;86.87;;;14.87;;
8514;SDS011;4295;51.024;7.000;2022-08-19T11:52:39;76.60;;;12.50;;
8514;SDS011;4295;51.024;7.000;2022-08-19T11:55:04;76.63;;;14.00;;
8514;SDS011;4295;51.024;7.000;2022-08-19T11:57:30;73.17;;;12.80;;
8514;SDS011;4295;51.024;7.000;2022-08-19T11:59:55;76.90;;;14.27;;
8514;SDS011;4295;51.024;7.000;2022-08-19T12:02:20;74.87;;;12.37;;
8514;SDS011;4295;51.024;7.000;2022-08-19T12:04:46;73.23;;;12.50;;
8514;SDS011;4295;51.024;7.000;2022-08-19T12:07:12;76.07;;;13.50;;
8514;SDS011;4295;51.024;7.000;2022-08-19T12:09:37;73.17;;;11.57;;
8514;SDS011;4295;51.024;7.000;2022-08-19T12:12:04;74.80;;;11.27;;
8514;SDS011;4295;51.024;7.000;2022-08-19T12:14:29;74.40;;;11.00;;
8514;SDS011;4295;51.024;7.000;2022-08-19T12:16:56;71.93;;;10.50;;
8514;SDS011;4295;51.024;7.000;2022-08-19T12:19:21;73.50;;;11.70;;
8514;SDS011;4295;51.024;7.000;2022-08-19T12:21:46;77.63;;;11.33;;
8514;SDS011;4295;51.024;7.000;2022-08-19T12:24:12;71.40;;;10.47;;
8514;SDS011;4295;51.024;7.000;2022-08-19T12:26:38;71.70;;;9.07;;
8514;SDS011;4295;51.024;7.000;2022-08-19T12:29:03;73.57;;;9.93;;
8514;SDS011;4295;51.024;7.000;2022-08-19T12:31:29;77.20;;;10.47;;
8514;SDS011;4295;51.024;7.000;2022-08-19T12:33:54;72.63;;;9.70;;
8514;SDS011;4295;51.024;7.000;2022-08-19T12:36:20;78.37;;;8.50;;
8514;SDS011;4295;51.024;7.000;2022-08-19T12:38:46;73.13;;;8.93;;
8514;SDS011;4295;51.024;7.000;2022-08-19T12:41:14;70.97;;;9.47;;
8514;SDS011;4295;51.024;7.000;2022-08-19T12:43:40;72.60;;;9.00;;
8514;SDS011;4295;51.024;7.000;2022-08-19T12:46:06;73.47;;;9.93;;
8514;SDS011;4295;51.024;7.000;2022-08-19T12:48:32;73.80;;;9.17;;
8514;SDS011;4295;51.024;7.000;2022-08-19T12:50:58;75.33;;;9.30;;
8514;SDS011;4295;51.024;7.000;2022-08-19T12:53:23;72.37;;;8.50;;
8514;SDS011;4295;51.024;7.000;2022-08-19T12:55:54;71.30;;;9.13;;
8514;SDS011;4295;51.024;7.000;2022-08-19T12:58:20;72.57;;;10.13;;
8514;SDS011;4295;51.024;7.000;2022-08-19T13:00:46;71.03;;;9.67;;
8514;SDS011;4295;51.024;7.000;2022-08-19T13:03:11;71.77;;;10.00;;
8514;SDS011;4295;51.024;7.000;2022-08-19T13:05:36;70.60;;;9.10;;
8514;SDS011;4295;51.024;7.000;2022-08-19T13:08:02;71.07;;;8.87;;
8514;SDS011;4295;51.024;7.000;2022-08-19T13:10:32;69.00;;;8.70;;
8514;SDS011;4295;51.024;7.000;2022-08-19T13:13:00;72.40;;;8.30;;
8514;SDS011;4295;51.024;7.000;2022-08-19T13:15:26;71.57;;;8.40;;
8514;SDS011;4295;51.024;7.000;2022-08-19T13:17:53;69.70;;;7.73;;
8514;SDS011;4295;51.024;7.000;2022-08-19T13:20:20;71.90;;;9.00;;
8514;SDS011;4295;51.024;7.000;2022-08-19T13:22:46;72.57;;;8.50;;
8514;SDS011;4295;51.024;7.000;2022-08-19T13:25:11;71.80;;;9.33;;
8514;SDS011;4295;51.024;7.000;2022-08-19T13:27:37;73.57;;;9.53;;
8514;SDS011;4295;51.024;7.000;2022-08-19T13:30:03;72.70;;;8.70;;
8514;SDS011;4295;51.024;7.000;2022-08-19T13:32:58;77.50;;;8.90;;
8514;SDS011;4295;51.024;7.000;2022-08-19T13:38:09;76.57;;;9.07;;
8514;SDS011;4295;51.024;7.000;2022-08-19T13:40:35;72.87;;;9.10;;
8514;SDS011;4295;51.024;7.000;2022-08-19T13:43:02;77.40;;;9.47;;
8514;SDS011;4295;51.024;7.000;2022-08-19T13:45:28;69.50;;;8.00;;
8514;SDS011;4295;51.024;7.000;2022-08-19T13:47:54;70.37;;;8.07;;
8514;SDS011;4295;51.024;7.000;2022-08-19T13:50:21;70.03;;;7.90;;
8514;SDS011;4295;51.024;7.000;2022-08-19T13:52:46;70.03;;;8.03;;
8514;SDS011;4295;51.024;7.000;2022-08-19T13:55:12;71.00;;;7.87;;
8514;SDS011;4295;51.024;7.000;2022-08-19T13:57:38;73.33;;;7.43;;
8514;SDS011;4295;51.024;7.000;2022-08-19T14:00:04;72.23;;;8.37;;
8514;SDS011;4295;51.024;7.000;2022-08-19T14:02:30;71.63;;;7.60;;
8514;SDS011;4295;51.024;7.000;2022-08-19T14:04:55;68.77;;;7.87;;
8514;SDS011;4295;51.024;7.000;2022-08-19T14:07:20;74.33;;;7.00;;
8514;SDS011;4295;51.024;7.000;2022-08-19T14:09:49;77.23;;;7.97;;
8514;SDS011;4295;51.024;7.000;2022-08-19T14:12:14;73.37;;;6.90;;
8514;SDS011;4295;51.024;7.000;2022-08-19T14:14:42;68.23;;;6.97;;
8514;SDS011;4295;51.024;7.000;2022-08-19T14:17:08;71.03;;;6.93;;
8514;SDS011;4295;51.024;7.000;2022-08-19T14:19:34;71.67;;;7.47;;
8514;SDS011;4295;51.024;7.000;2022-08-19T14:21:59;74.17;;;8.20;;
8514;SDS011;4295;51.024;7.000;2022-08-19T14:24:24;69.17;;;7.77;;
8514;SDS011;4295;51.024;7.000;2022-08-19T14:26:49;73.37;;;7.60;;
8514;SDS011;4295;51.024;7.000;2022-08-19T14:29:15;74.70;;;8.20;;
8514;SDS011;4295;51.024;7.000;2022-08-19T14:31:40;71.00;;;8.57;;
8514;SDS011;4295;51.024;7.000;2022-08-19T14:34:07;68.60;;;7.20;;
8514;SDS011;4295;51.024;7.000;2022-08-19T14:36:32;69.73;;;7.00;;
8514;SDS011;4295;51.024;7.000;2022-08-19T14:38:59;70.70;;;7.20;;
8514;SDS011;4295;51.024;7.000;2022-08-19T14:41:25;69.90;;;6.73;;
8514;SDS011;4295;51.024;7.000;2022-08-19T14:43:52;68.37;;;6.33;;
8514;SDS011;4295;51.024;7.000;2022-08-19T14:46:19;67.97;;;6.50;;
8514;SDS011;4295;51.024;7.000;2022-08-19T14:48:45;71.83;;;6.90;;
8514;SDS011;4295;51.024;7.000;2022-08-19T14:51:11;67.47;;;6.37;;
8514;SDS011;4295;51.024;7.000;2022-08-19T14:53:36;68.10;;;5.60;;
8514;SDS011;4295;51.024;7.000;2022-08-19T14:56:06;70.20;;;6.83;;